Time;durP1;ratioP1;P1;durP2;ratioP2;P2;SDS_P1;SDS_P2;PMS_P1;PMS_P2;Temp;Humidity;BMP_temperature;BMP_pressure;BME280_temperature;BME280_humidity;BME280_pressure;Samples;Min_cycle;Max_cycle;Signal;HPM_P1;HPM_P2
2022/06/12 00:00:01;;;;;;;6.77;3.60;;;19.50;96.10;;;;;;7375468;19;20408;-79
2022/06/12 00:02:31;;;;;;;10.97;4.43;;;19.50;95.90;;;;;;7367603;19;20417;-80
2022/06/12 00:05:03;;;;;;;4.53;3.53;;;19.30;96.00;;;;;;7373753;19;21052;-80
2022/06/12 00:07:33;;;;;;;4.17;3.40;;;19.30;96.50;;;;;;7373020;19;20430;-79
2022/06/12 00:10:02;;;;;;;3.20;2.93;;;19.30;96.50;;;;;;7377766;19;20379;-80
2022/06/12 00:12:32;;;;;;;5.47;3.20;;;19.40;96.00;;;;;;7373159;19;20723;-80
2022/06/12 00:15:01;;;;;;;4.50;3.57;;;19.60;95.60;;;;;;7374790;19;20380;-80
2022/06/12 00:17:31;;;;;;;4.63;4.03;;;19.50;95.70;;;;;;7368277;19;20433;-80
2022/06/12 00:20:03;;;;;;;5.60;3.13;;;19.50;96.00;;;;;;7377678;19;20372;-80
2022/06/12 00:22:32;;;;;;;6.37;4.90;;;19.50;95.90;;;;;;7374117;19;20404;-80
2022/06/12 00:25:02;;;;;;;5.37;3.40;;;19.50;95.50;;;;;;7377308;19;20413;-80
2022/06/12 00:27:31;;;;;;;4.50;4.10;;;19.30;96.40;;;;;;7376092;19;21155;-80
2022/06/12 00:30:01;;;;;;;4.87;3.70;;;19.40;96.30;;;;;;7372480;19;20940;-80
2022/06/12 00:32:33;;;;;;;4.57;3.77;;;19.40;96.40;;;;;;7372033;19;20799;-81
2022/06/12 00:35:10;;;;;;;3.73;3.40;;;19.10;97.30;;;;;;7376334;19;20412;-81
2022/06/12 00:37:40;;;;;;;4.63;3.03;;;19.10;97.80;;;;;;7348708;19;21434;-82
2022/06/12 00:40:10;;;;;;;3.70;3.40;;;18.90;98.20;;;;;;7366321;19;21260;-83
2022/06/12 00:42:47;;;;;;;4.13;3.50;;;18.90;98.80;;;;;;7369268;19;20408;-81
2022/06/12 00:45:40;;;;;;;3.50;2.93;;;18.90;98.60;;;;;;7366108;19;20743;-82
2022/06/12 00:48:12;;;;;;;5.43;4.40;;;19.00;98.20;;;;;;7371006;19;20411;-81
2022/06/12 00:50:49;;;;;;;6.93;3.80;;;19.00;98.10;;;;;;7376091;19;20375;-82
2022/06/12 00:53:21;;;;;;;6.70;3.37;;;19.10;98.40;;;;;;7368642;19;20412;-82
2022/06/12 00:55:59;;;;;;;5.20;3.50;;;19.30;98.10;;;;;;7368679;19;20499;-82
2022/06/12 00:58:35;;;;;;;3.87;3.47;;;19.40;97.30;;;;;;7373164;19;21091;-82
2022/06/12 01:01:07;;;;;;;4.03;3.53;;;19.50;96.30;;;;;;7373879;19;20419;-83
2022/06/12 01:06:33;;;;;;;3.70;3.13;;;19.30;96.60;;;;;;7374622;19;20864;-82
2022/06/12 01:06:34;;;;;;;4.10;3.60;;;19.20;97.30;;;;;;7369582;19;20428;-83
2022/06/12 01:09:05;;;;;;;4.17;3.53;;;19.10;97.50;;;;;;7378632;19;21421;-84
2022/06/12 01:11:36;;;;;;;4.37;3.10;;;18.90;98.50;;;;;;7373844;19;21362;-83
2022/06/12 01:14:08;;;;;;;3.63;3.00;;;18.90;98.70;;;;;;7370995;19;20405;-82
2022/06/12 01:16:45;;;;;;;5.63;3.60;;;19.00;98.90;;;;;;7366392;19;20414;-83
2022/06/12 01:19:23;;;;;;;4.30;3.70;;;19.00;98.60;;;;;;7373578;19;20372;-83
2022/06/12 01:22:16;;;;;;;3.23;2.93;;;18.90;98.90;;;;;;7367621;19;20412;-80
2022/06/12 01:25:03;;;;;;;4.60;3.47;;;18.90;99.00;;;;;;7369001;19;20423;-81
2022/06/12 01:27:59;;;;;;;4.00;3.60;;;18.70;99.20;;;;;;7371480;19;20404;-82
2022/06/12 01:30:36;;;;;;;4.17;3.23;;;18.70;99.70;;;;;;7367392;19;20428;-82
2022/06/12 01:33:14;;;;;;;5.97;3.70;;;18.60;99.90;;;;;;7373173;19;20401;-81
2022/06/12 01:35:50;;;;;;;6.33;3.73;;;18.70;99.90;;;;;;7374293;19;20407;-82
2022/06/12 01:38:22;;;;;;;3.93;3.53;;;18.60;99.90;;;;;;7367183;19;20982;-83
2022/06/12 01:41:01;;;;;;;5.47;3.63;;;18.50;99.90;;;;;;7373692;19;20411;-82
2022/06/12 01:43:41;;;;;;;4.70;3.57;;;18.50;99.90;;;;;;7368668;19;21535;-81
2022/06/12 01:46:19;;;;;;;3.90;3.30;;;18.30;99.90;;;;;;7365429;19;20720;-83
2022/06/12 01:49:00;;;;;;;5.57;3.53;;;18.00;99.90;;;;;;7364891;19;20840;-82
2022/06/12 01:51:34;;;;;;;4.00;3.13;;;18.00;99.90;;;;;;7362869;19;20443;-80
2022/06/12 01:54:17;;;;;;;4.70;3.80;;;18.20;99.90;;;;;;7367595;19;21001;-80
2022/06/12 01:56:52;;;;;;;3.77;3.47;;;18.20;99.90;;;;;;7369979;19;20420;-80
2022/06/12 01:59:27;;;;;;;3.83;3.00;;;18.30;99.90;;;;;;7369607;19;20416;-82
2022/06/12 02:02:04;;;;;;;8.50;3.90;;;18.40;99.90;;;;;;7371326;19;20471;-81
2022/06/12 02:04:38;;;;;;;3.80;3.43;;;18.50;99.90;;;;;;7371665;19;21082;-80
2022/06/12 02:07:18;;;;;;;3.13;2.73;;;18.40;99.90;;;;;;7373973;19;20423;-82
2022/06/12 02:09:53;;;;;;;3.90;3.57;;;18.60;99.90;;;;;;7371092;19;20424;-80
2022/06/12 02:15:11;;;;;;;4.53;3.70;;;18.40;99.90;;;;;;7368312;19;20408;-81
2022/06/12 02:17:50;;;;;;;4.53;3.23;;;18.20;99.90;;;;;;7361998;19;20416;-79
2022/06/12 02:20:23;;;;;;;6.00;4.03;;;18.00;99.90;;;;;;7358528;19;20403;-79
2022/06/12 02:22:53;;;;;;;4.47;3.70;;;18.10;99.90;;;;;;7363239;19;21126;-77
2022/06/12 02:25:27;;;;;;;4.53;3.63;;;17.90;99.90;;;;;;7368247;19;20416;-84
2022/06/12 02:28:03;;;;;;;5.57;4.40;;;18.00;99.90;;;;;;7358267;19;20427;-83
2022/06/12 02:30:39;;;;;;;4.50;3.50;;;17.90;99.90;;;;;;7371628;19;20415;-82
2022/06/12 02:33:17;;;;;;;4.03;3.20;;;18.00;99.90;;;;;;7379088;19;20413;-84
2022/06/12 02:35:50;;;;;;;5.57;3.43;;;18.10;99.90;;;;;;7379133;19;20418;-83
2022/06/12 02:38:26;;;;;;;5.23;4.23;;;18.30;99.90;;;;;;7371074;19;20415;-83
2022/06/12 02:40:58;;;;;;;5.80;3.50;;;18.00;99.90;;;;;;7374634;19;20404;-82
2022/06/12 02:43:32;;;;;;;6.97;3.90;;;17.90;99.90;;;;;;7374052;19;20450;-82
2022/06/12 02:46:06;;;;;;;3.97;3.67;;;17.90;99.90;;;;;;7374574;19;20415;-87
2022/06/12 02:48:38;;;;;;;4.37;3.67;;;17.90;99.90;;;;;;7378296;19;20416;-86
2022/06/12 02:51:16;;;;;;;4.27;3.87;;;17.90;99.90;;;;;;7382934;19;20412;-85
2022/06/12 02:53:58;;;;;;;3.80;3.23;;;17.80;99.90;;;;;;7381137;19;20376;-84
2022/06/12 02:56:42;;;;;;;5.83;3.60;;;17.90;99.90;;;;;;7374325;19;20444;-85
2022/06/12 02:59:32;;;;;;;5.60;3.57;;;18.10;99.90;;;;;;7375640;19;20940;-85
2022/06/12 03:02:13;;;;;;;4.90;3.70;;;18.30;99.90;;;;;;7381697;19;20536;-88
2022/06/12 03:04:50;;;;;;;6.50;4.07;;;17.90;99.90;;;;;;7387640;19;21452;-85
2022/06/12 03:07:19;;;;;;;3.93;3.60;;;17.80;99.90;;;;;;7384989;19;20411;-85
2022/06/12 03:09:49;;;;;;;7.03;3.70;;;17.80;99.90;;;;;;7384712;19;21035;-86
2022/06/12 03:12:19;;;;;;;4.90;3.80;;;18.00;99.90;;;;;;7380972;19;20404;-85
2022/06/12 03:14:52;;;;;;;5.00;4.30;;;17.80;99.90;;;;;;7385538;19;20392;-85
2022/06/12 03:17:24;;;;;;;5.80;3.97;;;17.80;99.90;;;;;;7380942;19;20415;-88
2022/06/12 03:19:58;;;;;;;5.63;3.50;;;17.60;99.90;;;;;;7383219;19;20412;-89
2022/06/12 03:22:37;;;;;;;6.00;4.47;;;17.50;99.90;;;;;;7382150;19;21347;-88
2022/06/12 03:25:15;;;;;;;5.53;3.90;;;17.60;99.90;;;;;;7382492;19;20408;-89
2022/06/12 03:28:03;;;;;;;7.90;4.43;;;17.60;99.90;;;;;;7381622;19;20392;-88
2022/06/12 03:30:38;;;;;;;5.87;3.93;;;17.30;99.90;;;;;;7376645;19;21038;-89
2022/06/12 03:33:15;;;;;;;6.47;4.50;;;17.20;99.90;;;;;;7373352;19;21129;-90
2022/06/12 03:35:56;;;;;;;6.13;3.57;;;17.20;99.90;;;;;;7388235;19;20392;-90
2022/06/12 03:38:32;;;;;;;4.10;3.70;;;17.30;99.90;;;;;;7376218;19;20519;-85
2022/06/12 03:41:09;;;;;;;4.40;3.50;;;17.50;99.90;;;;;;7378704;19;20404;-87
2022/06/12 03:43:45;;;;;;;5.37;3.97;;;17.70;99.90;;;;;;7368264;19;20368;-81
2022/06/12 03:46:27;;;;;;;5.00;4.47;;;17.60;99.90;;;;;;7362463;19;20416;-81
2022/06/12 03:49:05;;;;;;;4.83;3.77;;;17.60;99.90;;;;;;7374960;19;20416;-81
2022/06/12 03:51:42;;;;;;;5.53;4.57;;;17.60;99.90;;;;;;7371218;19;20412;-81
2022/06/12 03:54:21;;;;;;;5.00;4.50;;;17.60;99.90;;;;;;7373551;19;20416;-80
2022/06/12 03:59:41;;;;;;;7.10;4.10;;;17.80;99.90;;;;;;7367012;19;20439;-82
2022/06/12 04:02:14;;;;;;;5.60;4.27;;;17.80;99.90;;;;;;7371714;19;21097;-83
2022/06/12 04:04:47;;;;;;;6.33;4.27;;;17.70;99.90;;;;;;7381007;19;20897;-84
2022/06/12 04:07:26;;;;;;;5.90;4.77;;;17.70;99.90;;;;;;7378642;19;20375;-85
2022/06/12 04:09:58;;;;;;;4.80;4.30;;;17.70;99.90;;;;;;7374079;19;20425;-84
2022/06/12 04:12:30;;;;;;;4.87;4.37;;;17.80;99.90;;;;;;7376523;19;20433;-84
2022/06/12 04:15:06;;;;;;;5.30;4.30;;;17.80;99.90;;;;;;7376779;19;20404;-84
2022/06/12 04:17:37;;;;;;;6.77;4.83;;;17.80;99.90;;;;;;7375873;19;20417;-84
2022/06/12 04:20:07;;;;;;;6.80;4.77;;;17.90;99.90;;;;;;7372045;19;20424;-83
2022/06/12 04:22:59;;;;;;;5.87;4.73;;;18.00;99.90;;;;;;7371914;19;20513;-83
2022/06/12 04:25:40;;;;;;;6.53;5.77;;;18.10;99.90;;;;;;7372310;19;20412;-83
2022/06/12 04:28:28;;;;;;;15.10;8.60;;;18.00;99.90;;;;;;7371992;19;20408;-83
2022/06/12 04:31:00;;;;;;;10.57;6.97;;;18.10;99.90;;;;;;7368973;19;20920;-85
2022/06/12 04:33:53;;;;;;;8.50;6.40;;;18.10;99.90;;;;;;7372443;19;20408;-85
2022/06/12 04:36:23;;;;;;;7.30;6.50;;;18.00;99.90;;;;;;7375083;19;20408;-85
2022/06/12 04:38:56;;;;;;;6.87;5.97;;;18.10;99.90;;;;;;7373986;19;20419;-83
2022/06/12 04:41:30;;;;;;;7.33;5.90;;;18.20;99.90;;;;;;7379402;19;20408;-86
2022/06/12 04:44:00;;;;;;;7.80;5.90;;;18.10;99.90;;;;;;7376339;19;20991;-85
2022/06/12 04:46:29;;;;;;;17.90;7.03;;;18.10;99.90;;;;;;7376583;19;20420;-85
2022/06/12 04:49:00;;;;;;;6.87;5.90;;;18.00;99.90;;;;;;7378320;19;20400;-85
2022/06/12 04:51:33;;;;;;;6.70;5.40;;;17.90;99.90;;;;;;7366063;19;20474;-81
2022/06/12 04:54:05;;;;;;;8.00;5.60;;;18.00;99.90;;;;;;7371589;19;20420;-81
2022/06/12 04:56:36;;;;;;;5.80;5.00;;;18.00;99.90;;;;;;7367579;19;21113;-78
2022/06/12 04:59:07;;;;;;;5.93;4.93;;;17.90;99.90;;;;;;7370644;19;20483;-81
2022/06/12 05:01:39;;;;;;;6.63;5.10;;;18.10;99.90;;;;;;7365313;19;20432;-78
2022/06/12 05:04:11;;;;;;;6.37;5.63;;;18.20;99.90;;;;;;7374244;19;20424;-79
2022/06/12 05:06:44;;;;;;;7.40;5.47;;;18.10;99.90;;;;;;7370963;19;20388;-79
2022/06/12 05:09:17;;;;;;;6.00;5.30;;;18.00;99.90;;;;;;7375204;19;21296;-79
2022/06/12 05:11:46;;;;;;;6.67;5.47;;;18.00;99.90;;;;;;7363526;19;20420;-81
2022/06/12 05:14:16;;;;;;;8.20;5.37;;;18.00;99.90;;;;;;7367920;19;20380;-82
2022/06/12 05:16:51;;;;;;;6.70;5.03;;;18.10;99.90;;;;;;7364247;19;20905;-81
2022/06/12 05:19:25;;;;;;;9.07;5.57;;;18.30;99.90;;;;;;7364398;19;20415;-82
2022/06/12 05:21:55;;;;;;;6.33;5.70;;;18.50;99.90;;;;;;7381782;19;20439;-85
2022/06/12 05:24:27;;;;;;;9.00;5.77;;;18.70;99.90;;;;;;7377327;19;20417;-86
2022/06/12 05:27:02;;;;;;;5.67;4.97;;;18.90;99.90;;;;;;7378030;19;20990;-83
2022/06/12 05:29:34;;;;;;;7.40;5.07;;;18.90;99.90;;;;;;7373372;19;21195;-81
2022/06/12 05:32:08;;;;;;;8.00;5.13;;;19.00;99.90;;;;;;7363884;19;20783;-81
2022/06/12 05:34:38;;;;;;;8.30;5.20;;;19.20;99.90;;;;;;7371782;19;20377;-81
2022/06/12 05:37:08;;;;;;;6.20;4.53;;;19.40;99.90;;;;;;7371149;19;20845;-81
2022/06/12 05:39:41;;;;;;;9.10;5.73;;;19.50;99.90;;;;;;7366729;19;20477;-81
2022/06/12 05:42:11;;;;;;;5.27;4.77;;;19.60;99.90;;;;;;7372306;19;20416;-81
2022/06/12 05:44:42;;;;;;;7.20;5.33;;;19.80;99.90;;;;;;7372214;19;20528;-81
2022/06/12 05:47:14;;;;;;;8.50;5.30;;;20.00;99.90;;;;;;7367869;19;20446;-84
2022/06/12 05:49:44;;;;;;;7.13;5.33;;;20.20;99.90;;;;;;7373896;19;20414;-82
2022/06/12 05:52:14;;;;;;;10.03;6.00;;;20.30;99.90;;;;;;7367874;19;20400;-81
2022/06/12 05:54:46;;;;;;;6.70;5.20;;;20.30;99.50;;;;;;7372190;19;21134;-82
2022/06/12 05:57:16;;;;;;;6.20;4.83;;;20.20;98.60;;;;;;7371794;19;20845;-82
2022/06/12 05:59:45;;;;;;;4.80;4.37;;;20.40;99.20;;;;;;7369729;19;20397;-82
2022/06/12 06:02:15;;;;;;;5.53;4.57;;;20.50;98.60;;;;;;7370406;19;21193;-82
2022/06/12 06:04:44;;;;;;;6.47;3.80;;;20.60;99.10;;;;;;7370504;19;20770;-82
2022/06/12 06:07:14;;;;;;;4.77;4.37;;;20.80;98.90;;;;;;7371772;19;20412;-82
2022/06/12 06:09:46;;;;;;;4.23;3.83;;;20.90;98.50;;;;;;7368651;19;20409;-83
2022/06/12 06:12:18;;;;;;;6.53;4.03;;;21.00;98.10;;;;;;7371096;19;20419;-83
2022/06/12 06:14:47;;;;;;;5.73;4.17;;;21.10;97.60;;;;;;7372654;19;20372;-83
2022/06/12 06:17:17;;;;;;;4.47;3.90;;;21.20;97.20;;;;;;7366937;19;20877;-85
2022/06/12 06:19:49;;;;;;;5.83;4.73;;;21.40;96.20;;;;;;7366077;19;20420;-85
2022/06/12 06:22:20;;;;;;;6.23;5.10;;;21.50;95.50;;;;;;7372383;19;20412;-85
2022/06/12 06:24:52;;;;;;;5.70;4.33;;;21.70;95.30;;;;;;7362645;19;21276;-85
2022/06/12 06:27:24;;;;;;;4.87;4.03;;;21.90;94.40;;;;;;7369509;19;20971;-84
2022/06/12 06:29:54;;;;;;;7.80;4.97;;;22.00;93.50;;;;;;7368521;19;20491;-85
2022/06/12 06:32:23;;;;;;;8.47;5.00;;;22.20;92.40;;;;;;7366171;19;21620;-84
2022/06/12 06:34:55;;;;;;;6.77;4.70;;;22.40;91.70;;;;;;7370475;19;20397;-83
2022/06/12 06:37:27;;;;;;;6.30;4.60;;;22.60;91.10;;;;;;7368811;19;20416;-83
2022/06/12 06:40:00;;;;;;;6.67;4.60;;;22.70;90.50;;;;;;7366051;19;20775;-86
2022/06/12 06:42:30;;;;;;;5.13;4.67;;;22.70;88.90;;;;;;7372711;19;20420;-85
2022/06/12 06:47:48;;;;;;;7.80;5.00;;;23.00;87.10;;;;;;7364643;19;20408;-85
2022/06/12 06:50:20;;;;;;;7.13;5.73;;;23.20;86.20;;;;;;7369437;19;20501;-86
2022/06/12 06:52:50;;;;;;;4.43;4.03;;;23.30;85.00;;;;;;7374809;19;20419;-86
2022/06/12 06:55:23;;;;;;;5.17;4.07;;;23.40;83.30;;;;;;7370039;19;21035;-87
2022/06/12 06:57:52;;;;;;;5.20;3.83;;;23.50;82.20;;;;;;7370167;19;20435;-85
2022/06/12 07:00:31;;;;;;;4.83;4.30;;;23.70;81.10;;;;;;7368618;19;21644;-85
2022/06/12 07:03:01;;;;;;;5.87;4.13;;;23.80;80.80;;;;;;7367246;19;20415;-83
2022/06/12 07:05:32;;;;;;;5.23;3.93;;;23.90;79.70;;;;;;7364521;19;20396;-83
2022/06/12 07:08:05;;;;;;;4.97;3.90;;;24.00;77.80;;;;;;7368393;19;20421;-83
2022/06/12 07:10:40;;;;;;;5.60;3.80;;;24.10;77.60;;;;;;7366313;19;20417;-84
2022/06/12 07:13:10;;;;;;;6.37;4.20;;;24.30;75.60;;;;;;7369279;19;20412;-84
2022/06/12 07:15:41;;;;;;;4.80;3.67;;;24.20;74.80;;;;;;7370736;19;20752;-83
2022/06/12 07:18:12;;;;;;;5.17;4.43;;;24.40;75.80;;;;;;7368923;19;20416;-85
2022/06/12 07:20:48;;;;;;;4.80;4.23;;;24.40;75.50;;;;;;7374806;19;20383;-82
2022/06/12 07:23:20;;;;;;;6.20;4.00;;;24.60;74.90;;;;;;7375160;19;20433;-90
2022/06/12 07:25:55;;;;;;;3.90;3.50;;;24.70;73.70;;;;;;7378731;19;20417;-83
2022/06/12 07:28:26;;;;;;;5.37;3.37;;;24.90;73.30;;;;;;7368759;19;20395;-79
2022/06/12 07:30:56;;;;;;;4.20;3.40;;;25.00;71.90;;;;;;7367300;19;20419;-82
2022/06/12 07:33:26;;;;;;;4.07;3.77;;;25.20;70.90;;;;;;7359923;19;20498;-87
2022/06/12 07:35:56;;;;;;;4.07;3.73;;;25.20;70.30;;;;;;7365708;19;20986;-79
2022/06/12 07:38:28;;;;;;;7.43;3.57;;;25.30;68.20;;;;;;7361188;19;21065;-82
2022/06/12 07:41:09;;;;;;;4.87;3.73;;;25.20;67.90;;;;;;7365523;19;20424;-81
2022/06/12 07:43:42;;;;;;;8.10;4.33;;;25.20;67.00;;;;;;7354061;19;20429;-81
2022/06/12 07:46:17;;;;;;;6.00;3.93;;;25.20;67.60;;;;;;7367591;19;20423;-81
2022/06/12 07:48:50;;;;;;;4.40;4.00;;;25.30;67.00;;;;;;7372260;19;20517;-81
2022/06/12 07:51:23;;;;;;;4.37;3.97;;;25.50;65.80;;;;;;7372671;19;20474;-81
2022/06/12 07:53:54;;;;;;;6.43;4.10;;;25.70;65.10;;;;;;7371664;19;21014;-81
2022/06/12 07:56:27;;;;;;;3.67;3.30;;;25.80;64.40;;;;;;7362655;19;20815;-81
2022/06/12 07:58:57;;;;;;;3.83;3.53;;;25.90;64.30;;;;;;7364541;19;20408;-80
2022/06/12 08:01:31;;;;;;;4.23;3.47;;;26.20;63.80;;;;;;7373550;19;20412;-82
2022/06/12 08:04:01;;;;;;;4.63;3.40;;;26.30;62.20;;;;;;7366131;19;20400;-82
2022/06/12 08:06:34;;;;;;;5.03;3.37;;;26.40;61.30;;;;;;7371414;19;20959;-82
2022/06/12 08:09:07;;;;;;;4.57;2.97;;;26.50;59.80;;;;;;7375734;19;20445;-81
2022/06/12 08:11:41;;;;;;;4.70;3.53;;;26.70;59.00;;;;;;7374773;19;20432;-82
2022/06/12 08:14:14;;;;;;;3.53;3.23;;;26.70;59.10;;;;;;7373482;19;20471;-83
2022/06/12 08:16:44;;;;;;;4.10;3.53;;;26.70;59.10;;;;;;7369835;19;20411;-82
2022/06/12 08:21:57;;;;;;;3.63;3.33;;;27.00;58.30;;;;;;7367023;19;20384;-80
2022/06/12 08:24:27;;;;;;;4.10;3.70;;;27.10;58.00;;;;;;7375486;19;20416;-79
2022/06/12 08:27:00;;;;;;;4.77;3.33;;;27.10;57.90;;;;;;7362856;19;20420;-80
2022/06/12 08:29:29;;;;;;;3.30;2.90;;;27.30;57.70;;;;;;7375419;19;20424;-80
2022/06/12 08:32:03;;;;;;;4.27;3.30;;;27.30;57.30;;;;;;7363811;19;20416;-80
2022/06/12 08:34:37;;;;;;;4.70;4.07;;;27.50;57.00;;;;;;7368550;19;20409;-82
2022/06/12 08:37:13;;;;;;;4.50;3.40;;;27.70;56.20;;;;;;7363125;19;20396;-83
2022/06/12 08:39:45;;;;;;;3.83;2.80;;;27.80;56.10;;;;;;7361146;19;20404;-85
2022/06/12 08:42:25;;;;;;;4.73;4.23;;;27.80;55.70;;;;;;7365387;19;20404;-84
2022/06/12 08:45:02;;;;;;;3.70;3.30;;;28.00;55.40;;;;;;7360889;19;20407;-84
2022/06/12 08:47:39;;;;;;;5.10;3.40;;;28.20;54.50;;;;;;7367143;19;21844;-85
2022/06/12 08:50:15;;;;;;;3.63;3.27;;;28.10;54.40;;;;;;7371419;19;20993;-85
2022/06/12 08:52:51;;;;;;;4.13;3.80;;;28.40;53.80;;;;;;7370766;19;20412;-83
2022/06/12 08:55:27;;;;;;;3.50;3.20;;;28.40;53.40;;;;;;7371416;19;21492;-85
2022/06/12 08:58:04;;;;;;;3.83;3.30;;;28.40;52.10;;;;;;7354615;19;20511;-84
2022/06/12 09:00:40;;;;;;;4.60;3.63;;;28.70;52.20;;;;;;7371113;19;20404;-82
2022/06/12 09:03:22;;;;;;;5.10;3.13;;;29.10;51.20;;;;;;7360822;19;20415;-83
2022/06/12 09:05:56;;;;;;;4.97;3.27;;;29.30;50.10;;;;;;7371195;19;21039;-83
2022/06/12 09:08:31;;;;;;;5.17;2.73;;;29.60;48.90;;;;;;7367887;19;20396;-81
2022/06/12 09:11:11;;;;;;;2.73;2.50;;;29.70;47.30;;;;;;7362974;19;20814;-81
2022/06/12 09:13:55;;;;;;;3.33;2.93;;;29.80;48.20;;;;;;7368008;19;20419;-80
2022/06/12 09:16:32;;;;;;;3.67;2.67;;;29.90;47.80;;;;;;7363560;19;20400;-81
2022/06/12 09:19:07;;;;;;;2.47;2.27;;;30.00;47.40;;;;;;7364032;19;20411;-82
2022/06/12 09:21:51;;;;;;;3.20;2.90;;;30.30;46.30;;;;;;7364172;19;20843;-87
2022/06/12 09:24:31;;;;;;;3.07;2.23;;;30.50;45.10;;;;;;7368686;19;20972;-87
2022/06/12 09:27:08;;;;;;;2.67;2.43;;;31.00;45.00;;;;;;7359563;19;20412;-81
2022/06/12 09:29:49;;;;;;;2.83;2.00;;;31.00;44.50;;;;;;7368611;19;21063;-89
2022/06/12 09:32:31;;;;;;;7.13;2.40;;;31.40;43.40;;;;;;7368150;19;20848;-86
2022/06/12 09:35:17;;;;;;;3.20;3.00;;;32.00;42.30;;;;;;7366762;19;20721;-85
2022/06/12 09:40:53;;;;;;;2.80;2.60;;;32.40;41.10;;;;;;7367338;19;20475;-83
2022/06/12 09:43:36;;;;;;;3.20;2.20;;;32.30;41.30;;;;;;7357648;19;20467;-82
2022/06/12 09:46:17;;;;;;;3.37;2.43;;;33.00;40.10;;;;;;7369981;19;20404;-83
2022/06/12 09:48:59;;;;;;;2.87;2.13;;;33.30;39.50;;;;;;7371530;19;20427;-85
2022/06/12 09:51:42;;;;;;;3.10;2.67;;;33.60;38.70;;;;;;7373470;19;21258;-85
2022/06/12 09:54:33;;;;;;;3.97;2.10;;;34.00;38.10;;;;;;7372279;19;20417;-87
2022/06/12 09:57:12;;;;;;;2.80;2.60;;;34.10;38.00;;;;;;7368539;19;20416;-84
2022/06/12 09:59:55;;;;;;;3.00;2.67;;;34.60;36.30;;;;;;7368693;19;21416;-84
2022/06/12 10:02:34;;;;;;;2.90;2.27;;;34.80;35.20;;;;;;7369026;19;20412;-81
2022/06/12 10:05:12;;;;;;;2.90;2.20;;;34.90;35.40;;;;;;7357259;19;20400;-82
2022/06/12 10:07:48;;;;;;;2.77;2.57;;;35.60;34.70;;;;;;7365961;19;20945;-80
2022/06/12 10:10:25;;;;;;;3.17;2.60;;;36.20;34.20;;;;;;7366698;19;20403;-79
2022/06/12 10:13:00;;;;;;;3.87;2.37;;;36.90;32.70;;;;;;7369999;19;20419;-79
2022/06/12 10:15:34;;;;;;;2.70;2.50;;;36.50;33.20;;;;;;7367421;19;20655;-80
2022/06/12 10:18:12;;;;;;;2.30;1.93;;;36.30;33.10;;;;;;7363844;19;20420;-80
2022/06/12 10:20:46;;;;;;;3.47;2.40;;;36.20;32.70;;;;;;7367095;19;20427;-80
2022/06/12 10:23:18;;;;;;;3.60;2.73;;;36.10;33.20;;;;;;7360992;19;20366;-80
2022/06/12 10:25:52;;;;;;;3.90;2.70;;;35.60;33.50;;;;;;7365881;19;21702;-80
2022/06/12 10:28:30;;;;;;;4.50;3.03;;;35.40;34.00;;;;;;7371675;19;20403;-80
2022/06/12 10:31:18;;;;;;;3.53;2.80;;;35.40;33.70;;;;;;7368392;19;20400;-80
2022/06/12 10:33:56;;;;;;;2.77;2.43;;;35.40;33.20;;;;;;7371932;19;20424;-80
2022/06/12 10:36:33;;;;;;;3.77;2.77;;;35.10;34.10;;;;;;7359743;19;21374;-80
2022/06/12 10:39:08;;;;;;;3.30;2.20;;;34.70;33.90;;;;;;7365203;19;20404;-80
2022/06/12 10:41:47;;;;;;;4.53;2.63;;;34.70;34.50;;;;;;7361974;19;20444;-80
2022/06/12 10:44:34;;;;;;;3.37;2.50;;;34.80;34.60;;;;;;7366503;19;20489;-79
2022/06/12 10:47:23;;;;;;;2.80;2.50;;;34.90;34.20;;;;;;7367811;19;20403;-80
2022/06/12 10:50:19;;;;;;;3.30;2.80;;;34.60;34.80;;;;;;7367617;19;20784;-80
2022/06/12 10:53:01;;;;;;;4.17;3.20;;;34.00;35.10;;;;;;7376858;19;20447;-79
2022/06/12 10:55:43;;;;;;;7.00;3.30;;;33.90;35.30;;;;;;7373654;19;20400;-79
2022/06/12 10:58:27;;;;;;;4.17;3.00;;;32.80;36.90;;;;;;7374995;19;20428;-79
2022/06/12 11:01:02;;;;;;;5.90;3.00;;;32.10;38.20;;;;;;7372568;19;20400;-79
2022/06/12 11:03:45;;;;;;;3.30;3.00;;;32.30;38.50;;;;;;7370908;19;20505;-78
2022/06/12 11:06:23;;;;;;;4.10;3.10;;;32.30;37.80;;;;;;7369048;19;20403;-80
2022/06/12 11:09:19;;;;;;;4.13;3.57;;;32.60;38.00;;;;;;7378564;19;20678;-79
2022/06/12 11:12:32;;;;;;;2.97;2.73;;;32.90;37.70;;;;;;7373433;19;20666;-79
2022/06/12 11:15:14;;;;;;;5.43;3.37;;;33.20;36.80;;;;;;7364343;19;20420;-77
2022/06/12 11:17:56;;;;;;;3.00;2.70;;;33.90;36.20;;;;;;7375100;19;20372;-77
2022/06/12 11:20:33;;;;;;;3.07;2.80;;;34.20;35.80;;;;;;7376066;19;20446;-77
2022/06/12 11:23:22;;;;;;;3.90;3.00;;;34.40;35.40;;;;;;7376069;19;20408;-76
2022/06/12 11:26:07;;;;;;;3.67;2.80;;;34.10;35.50;;;;;;7372181;19;20424;-77
2022/06/12 11:28:51;;;;;;;3.13;2.83;;;34.20;35.30;;;;;;7374115;19;20802;-76
2022/06/12 11:31:33;;;;;;;3.03;2.73;;;34.30;35.90;;;;;;7374284;19;20904;-75
2022/06/12 11:34:13;;;;;;;3.37;2.97;;;34.50;34.90;;;;;;7367694;19;20416;-76
2022/06/12 11:36:56;;;;;;;3.53;2.57;;;34.50;34.80;;;;;;7376630;19;20547;-76
2022/06/12 11:39:42;;;;;;;3.27;2.70;;;34.40;34.60;;;;;;7374380;19;20380;-76
2022/06/12 11:42:33;;;;;;;3.30;3.00;;;34.10;35.50;;;;;;7367928;19;21317;-76
2022/06/12 11:45:14;;;;;;;2.90;2.60;;;34.00;35.70;;;;;;7374014;19;20828;-77
2022/06/12 11:48:00;;;;;;;4.47;3.33;;;33.80;35.50;;;;;;7361957;19;20809;-77
2022/06/12 11:50:39;;;;;;;3.17;2.87;;;33.70;35.70;;;;;;7371498;19;20424;-74
2022/06/12 11:53:24;;;;;;;3.03;2.20;;;33.10;35.60;;;;;;7370290;19;21125;-74
2022/06/12 11:56:06;;;;;;;4.13;3.60;;;32.90;36.10;;;;;;7375293;19;20377;-73
2022/06/12 11:58:53;;;;;;;3.10;2.80;;;32.00;37.70;;;;;;7359516;19;20424;-72
2022/06/12 12:01:26;;;;;;;4.57;3.10;;;32.00;37.50;;;;;;7368718;19;21023;-72
2022/06/12 12:04:22;;;;;;;3.33;2.97;;;31.20;39.10;;;;;;7371876;19;20898;-73
2022/06/12 12:07:00;;;;;;;4.70;2.87;;;31.20;40.00;;;;;;7369806;19;21252;-73
2022/06/12 12:09:51;;;;;;;3.63;2.63;;;31.60;39.70;;;;;;7354579;19;21431;-75
2022/06/12 12:12:26;;;;;;;4.40;3.03;;;31.60;39.20;;;;;;7357194;19;20404;-74
2022/06/12 12:15:02;;;;;;;10.27;3.87;;;31.10;40.00;;;;;;7364104;19;20380;-75
2022/06/12 12:17:36;;;;;;;3.60;2.60;;;31.10;39.70;;;;;;7369874;19;20750;-74
2022/06/12 12:20:14;;;;;;;3.63;2.77;;;31.30;39.50;;;;;;7365700;19;20762;-75
2022/06/12 12:22:47;;;;;;;3.00;2.70;;;31.40;39.20;;;;;;7368771;19;20426;-75
2022/06/12 12:25:22;;;;;;;5.43;3.03;;;31.50;39.30;;;;;;7371528;19;20412;-75
2022/06/12 12:27:56;;;;;;;3.80;2.90;;;30.70;39.40;;;;;;7373518;19;20410;-75
2022/06/12 12:30:29;;;;;;;5.37;3.17;;;30.70;40.40;;;;;;7369259;19;20717;-75
2022/06/12 12:33:01;;;;;;;4.10;2.97;;;30.70;40.40;;;;;;7373328;19;20412;-75
2022/06/12 12:41:16;;;;;;;3.10;2.77;;;30.60;41.10;;;;;;7375158;19;20492;-75
2022/06/12 12:43:57;;;;;;;3.90;2.50;;;30.50;41.20;;;;;;7372101;19;20947;-73
2022/06/12 12:46:42;;;;;;;2.67;2.47;;;30.40;41.70;;;;;;7370557;19;20376;-74
2022/06/12 12:49:22;;;;;;;3.27;2.97;;;30.20;40.70;;;;;;7366813;19;21166;-73
2022/06/12 12:51:53;;;;;;;4.40;2.97;;;30.40;41.50;;;;;;7369815;19;20396;-74
2022/06/12 12:54:23;;;;;;;2.80;2.43;;;30.70;40.70;;;;;;7372631;19;20372;-74
2022/06/12 12:57:04;;;;;;;2.77;2.57;;;30.80;41.20;;;;;;7374452;19;20432;-74
2022/06/12 12:59:42;;;;;;;3.00;2.43;;;30.90;41.50;;;;;;7368842;19;20565;-74
2022/06/12 13:02:30;;;;;;;3.50;2.40;;;30.80;41.10;;;;;;7369830;19;20912;-74
2022/06/12 13:05:02;;;;;;;2.80;2.50;;;30.50;40.10;;;;;;7368359;19;20799;-74
2022/06/12 13:07:53;;;;;;;5.07;2.53;;;30.70;41.00;;;;;;7367949;19;20435;-74
2022/06/12 13:10:49;;;;;;;3.50;2.30;;;31.20;39.80;;;;;;7367995;19;20727;-73
2022/06/12 13:13:41;;;;;;;2.63;2.43;;;31.50;39.50;;;;;;7362280;19;20404;-73
2022/06/12 13:16:21;;;;;;;4.37;3.13;;;31.70;39.20;;;;;;7365499;19;20441;-73
2022/06/12 13:19:13;;;;;;;3.67;2.70;;;31.90;38.70;;;;;;7344998;19;20863;-74
2022/06/12 13:21:51;;;;;;;2.77;2.43;;;31.70;38.80;;;;;;7366073;19;20875;-74
2022/06/12 13:24:32;;;;;;;3.27;2.90;;;31.30;39.70;;;;;;7364947;19;20375;-78
2022/06/12 13:27:20;;;;;;;2.77;2.57;;;31.30;40.00;;;;;;7366212;19;20933;-75
2022/06/12 13:29:51;;;;;;;2.37;2.13;;;31.30;40.60;;;;;;7360975;19;21064;-73
2022/06/12 13:32:28;;;;;;;6.03;2.47;;;31.10;40.60;;;;;;7367392;19;20763;-73
2022/06/12 13:35:01;;;;;;;3.77;2.70;;;30.80;41.00;;;;;;7368778;19;20420;-73
2022/06/12 13:37:34;;;;;;;3.30;2.30;;;30.70;41.60;;;;;;7365221;19;20373;-73
2022/06/12 13:40:06;;;;;;;3.67;2.80;;;30.60;41.70;;;;;;7368948;19;20725;-73
2022/06/12 13:42:38;;;;;;;2.67;2.40;;;30.60;41.70;;;;;;7364461;19;20408;-72
2022/06/12 13:45:21;;;;;;;3.57;2.27;;;30.60;42.00;;;;;;7364003;19;20380;-73
2022/06/12 13:47:53;;;;;;;2.83;2.63;;;30.40;41.80;;;;;;7356683;19;20376;-73
2022/06/12 13:50:29;;;;;;;2.73;2.53;;;30.20;42.60;;;;;;7359634;19;20408;-74